createdAt,value
2024-01-16T00:01:00.092Z,1.72
2024-01-16T00:03:26.671Z,1.72
2024-01-16T00:05:53.248Z,1.54
2024-01-16T00:08:19.724Z,1.52
2024-01-16T00:10:46.261Z,1.38
2024-01-16T00:13:13.196Z,1.37
2024-01-16T00:15:42.747Z,1.35
2024-01-16T00:18:09.738Z,1.32
2024-01-16T00:20:36.702Z,1.28
2024-01-16T00:23:03.189Z,1.33
2024-01-16T00:25:29.648Z,1.33
2024-01-16T00:27:56.743Z,1.35
2024-01-16T00:30:23.474Z,1.31
2024-01-16T00:32:50.409Z,1.43
2024-01-16T00:35:17.277Z,1.37
2024-01-16T00:37:44.004Z,1.34
2024-01-16T00:40:11.058Z,1.34
2024-01-16T00:42:37.847Z,1.23
2024-01-16T00:45:05.755Z,1.42
2024-01-16T00:47:32.582Z,1.26
2024-01-16T00:50:01.536Z,1.41
2024-01-16T00:52:28.410Z,1.37
2024-01-16T00:54:55.187Z,1.41
2024-01-16T00:57:22.426Z,1.27
2024-01-16T00:59:49.336Z,1.28
2024-01-16T01:02:16.573Z,1.27
2024-01-16T01:04:44.314Z,1.30
2024-01-16T01:07:14.593Z,1.25
2024-01-16T01:09:41.941Z,1.28
2024-01-16T01:12:08.981Z,1.22
2024-01-16T01:14:35.942Z,1.07
2024-01-16T01:17:02.923Z,0.94
2024-01-16T01:19:29.709Z,0.79
2024-01-16T01:21:56.398Z,0.67
2024-01-16T01:24:23.129Z,0.36
2024-01-16T01:26:49.845Z,0.36
2024-01-16T01:29:16.761Z,-0.01
2024-01-16T01:31:47.243Z,0.24
2024-01-16T01:34:14.018Z,0.33
2024-01-16T01:36:40.752Z,0.12
2024-01-16T01:39:07.805Z,0.33
2024-01-16T01:41:34.600Z,0.43
2024-01-16T01:44:01.389Z,0.52
2024-01-16T01:46:29.223Z,0.42
2024-01-16T01:48:57.234Z,0.31
2024-01-16T01:51:24.620Z,0.32
2024-01-16T01:53:52.996Z,0.14
2024-01-16T01:56:21.982Z,0.11
2024-01-16T01:58:50.786Z,0.03
2024-01-16T02:01:20.262Z,-0.16
2024-01-16T02:03:48.513Z,-0.70
2024-01-16T02:06:17.659Z,-0.40
2024-01-16T02:08:46.183Z,-0.27
2024-01-16T02:11:13.394Z,-0.19
2024-01-16T02:13:40.202Z,-0.08
2024-01-16T02:16:07.224Z,0.12
2024-01-16T02:18:34.081Z,0.35
2024-01-16T02:21:04.241Z,0.58
2024-01-16T02:23:32.537Z,0.61
2024-01-16T02:25:59.155Z,0.65
2024-01-16T02:28:25.643Z,0.68
2024-01-16T02:30:52.323Z,0.81
2024-01-16T02:33:19.399Z,0.81
2024-01-16T02:35:46.116Z,0.74
2024-01-16T02:38:12.690Z,0.85
2024-01-16T02:40:39.178Z,0.92
2024-01-16T02:43:05.716Z,0.81
2024-01-16T02:45:32.165Z,0.96
2024-01-16T02:47:59.068Z,0.89
2024-01-16T02:50:25.637Z,0.78
2024-01-16T02:52:52.258Z,0.86
2024-01-16T02:55:18.789Z,0.80
2024-01-16T02:57:45.545Z,0.93
2024-01-16T03:00:12.401Z,0.89
2024-01-16T03:02:39.062Z,0.92
2024-01-16T03:05:08.749Z,0.93
2024-01-16T03:07:35.989Z,0.99
2024-01-16T03:10:02.554Z,1.06
2024-01-16T03:12:29.113Z,0.97
2024-01-16T03:14:55.889Z,1.02
2024-01-16T03:17:22.592Z,1.09
2024-01-16T03:19:49.198Z,1.03
2024-01-16T03:22:15.720Z,1.06
2024-01-16T03:24:42.177Z,1.17
2024-01-16T03:27:08.704Z,1.06
2024-01-16T03:29:35.326Z,1.20
2024-01-16T03:32:02.260Z,1.29
2024-01-16T03:34:29.377Z,1.34
2024-01-16T03:36:55.946Z,1.20
2024-01-16T03:39:23.627Z,1.06
2024-01-16T03:41:50.276Z,1.11
2024-01-16T03:44:16.948Z,1.12
2024-01-16T03:46:43.403Z,1.02
2024-01-16T03:49:10.017Z,1.00
2024-01-16T03:51:36.460Z,1.08
2024-01-16T03:54:03.065Z,1.00
2024-01-16T03:56:30.077Z,1.08
2024-01-16T03:58:56.592Z,1.10
2024-01-16T04:01:37.273Z,1.06
2024-01-16T04:04:04.147Z,1.09
2024-01-16T04:06:31.040Z,1.12
2024-01-16T04:08:57.632Z,1.12
2024-01-16T04:11:24.140Z,1.17
2024-01-16T04:13:50.974Z,1.10
2024-01-16T04:16:17.596Z,1.09
2024-01-16T04:18:44.924Z,1.00
2024-01-16T04:21:11.982Z,1.05
2024-01-16T04:23:38.598Z,1.07
2024-01-16T04:26:05.333Z,0.96
2024-01-16T04:28:31.917Z,0.89
2024-01-16T04:30:58.447Z,0.96
2024-01-16T04:33:25.185Z,0.86
2024-01-16T04:35:51.819Z,0.86
2024-01-16T04:38:18.455Z,0.86
2024-01-16T04:40:45.109Z,0.57
2024-01-16T04:43:11.573Z,0.42
2024-01-16T04:45:38.052Z,0.19
2024-01-16T04:48:05.051Z,0.37
2024-01-16T04:50:34.405Z,0.48
2024-01-16T04:53:01.579Z,0.59
2024-01-16T04:55:31.521Z,0.45
2024-01-16T04:57:58.310Z,0.49
2024-01-16T05:00:25.082Z,0.54
2024-01-16T05:02:52.713Z,0.47
2024-01-16T05:05:19.453Z,0.34
2024-01-16T05:07:46.471Z,0.46
2024-01-16T05:10:16.582Z,0.50
2024-01-16T05:12:43.180Z,0.50
2024-01-16T05:15:12.410Z,0.48
2024-01-16T05:17:41.847Z,0.42
2024-01-16T05:20:09.404Z,0.33
2024-01-16T05:22:35.966Z,0.32
2024-01-16T05:25:03.554Z,0.32
2024-01-16T05:27:30.158Z,0.33
2024-01-16T05:29:56.692Z,0.23
2024-01-16T05:32:23.242Z,0.15
2024-01-16T05:34:49.752Z,0.06
2024-01-16T05:37:16.842Z,-0.10
2024-01-16T05:39:43.322Z,-0.15
2024-01-16T05:42:10.043Z,-0.37
2024-01-16T05:44:36.656Z,-0.57
2024-01-16T05:47:03.433Z,-0.54
2024-01-16T05:49:29.997Z,-0.63
2024-01-16T05:51:56.628Z,-0.63
2024-01-16T05:54:23.134Z,-0.80
2024-01-16T05:56:51.092Z,-0.83
2024-01-16T05:59:17.714Z,-0.85
2024-01-16T06:01:44.196Z,-0.83
2024-01-16T06:04:13.544Z,-0.78
2024-01-16T06:06:45.658Z,-0.92
2024-01-16T06:09:15.003Z,-0.92
2024-01-16T06:11:44.717Z,-1.02
2024-01-16T06:14:13.278Z,-1.23
2024-01-16T06:16:39.895Z,-1.15
2024-01-16T06:19:06.605Z,-1.19
2024-01-16T06:21:33.438Z,-1.22
2024-01-16T06:24:00.026Z,-1.25
2024-01-16T06:26:26.700Z,-1.10
2024-01-16T06:28:53.170Z,-0.94
2024-01-16T06:31:19.724Z,-0.84
2024-01-16T06:33:46.428Z,-0.90
2024-01-16T06:36:13.204Z,-0.97
2024-01-16T06:38:41.641Z,-0.96
2024-01-16T06:41:08.444Z,-1.23
2024-01-16T06:43:35.319Z,-1.38
2024-01-16T06:46:01.910Z,-1.39
2024-01-16T06:48:28.713Z,-1.48
2024-01-16T06:50:55.398Z,-1.33
2024-01-16T06:53:21.925Z,-1.46
2024-01-16T06:55:49.791Z,-1.44
2024-01-16T06:58:16.248Z,-1.36
2024-01-16T07:00:42.827Z,-1.39
2024-01-16T07:03:10.543Z,-1.40
2024-01-16T07:05:37.243Z,-1.79
2024-01-16T07:08:04.754Z,-1.77
2024-01-16T07:10:31.234Z,-1.83
2024-01-16T07:12:57.858Z,-1.75
2024-01-16T07:15:24.312Z,-1.83
2024-01-16T07:17:50.918Z,-1.59
2024-01-16T07:20:17.559Z,-1.44
2024-01-16T07:22:44.328Z,-1.24
2024-01-16T07:25:10.828Z,-1.10
2024-01-16T07:27:37.519Z,-1.03
2024-01-16T07:30:07.719Z,-0.61
2024-01-16T07:32:35.184Z,-0.51
2024-01-16T07:35:04.124Z,-0.36
2024-01-16T07:37:30.858Z,-0.27
2024-01-16T07:39:57.325Z,-0.31
2024-01-16T07:42:23.773Z,-0.34
2024-01-16T07:44:50.356Z,-0.21
2024-01-16T07:47:16.945Z,-0.25
2024-01-16T07:49:44.378Z,-0.16
2024-01-16T07:52:10.911Z,-0.13
2024-01-16T07:54:37.402Z,0.09
2024-01-16T07:57:04.105Z,-0.04
2024-01-16T07:59:30.676Z,-0.02
2024-01-16T08:01:57.981Z,-0.03
2024-01-16T08:04:24.447Z,-0.03
2024-01-16T08:06:51.070Z,-0.01
2024-01-16T08:09:18.483Z,0.00
2024-01-16T08:11:45.058Z,-0.04
2024-01-16T08:14:12.155Z,-0.15
2024-01-16T08:16:38.738Z,-0.25
2024-01-16T08:19:05.544Z,-0.20
2024-01-16T08:21:32.083Z,-0.08
2024-01-16T08:23:58.700Z,-0.17
2024-01-16T08:26:25.538Z,-0.12
2024-01-16T08:28:52.703Z,-0.05
2024-01-16T08:31:19.916Z,-0.08
2024-01-16T08:33:48.420Z,0.11
2024-01-16T08:36:16.489Z,0.12
2024-01-16T08:38:45.987Z,0.13
2024-01-16T08:41:12.512Z,0.21
2024-01-16T08:43:39.135Z,0.24
2024-01-16T08:46:05.619Z,0.34
2024-01-16T08:48:32.693Z,0.38
2024-01-16T08:51:02.058Z,0.33
2024-01-16T08:53:29.115Z,0.37
2024-01-16T08:55:55.977Z,0.40
2024-01-16T08:58:22.441Z,0.49
2024-01-16T09:00:49.042Z,0.46
2024-01-16T09:03:15.495Z,0.50
2024-01-16T09:05:42.152Z,0.57
2024-01-16T09:08:11.832Z,0.54
2024-01-16T09:10:39.974Z,0.69
2024-01-16T09:13:06.523Z,0.75
2024-01-16T09:15:33.324Z,0.81
2024-01-16T09:17:59.943Z,0.88
2024-01-16T09:20:26.605Z,1.05
2024-01-16T09:22:53.428Z,0.95
2024-01-16T09:25:20.033Z,1.01
2024-01-16T09:27:46.870Z,0.95
2024-01-16T09:30:13.879Z,1.12
2024-01-16T09:32:40.549Z,0.96
2024-01-16T09:35:10.200Z,1.02
2024-01-16T09:37:36.922Z,1.16
2024-01-16T09:40:06.396Z,1.26
2024-01-16T09:42:33.097Z,1.32
2024-01-16T09:45:01.781Z,1.32
2024-01-16T09:47:29.968Z,1.30
2024-01-16T09:49:58.327Z,1.36
2024-01-16T09:52:25.177Z,1.56
2024-01-16T09:54:51.724Z,1.36
2024-01-16T09:57:21.779Z,1.42
2024-01-16T09:59:49.362Z,1.62
2024-01-16T10:02:16.181Z,1.67
2024-01-16T10:04:42.940Z,1.63
2024-01-16T10:07:13.088Z,1.78
2024-01-16T10:09:40.216Z,1.91
2024-01-16T10:12:07.709Z,1.97
2024-01-16T10:14:39.694Z,1.85
2024-01-16T10:17:07.269Z,1.78
2024-01-16T10:19:43.264Z,1.90
2024-01-16T10:22:24.442Z,1.84
2024-01-16T10:25:09.657Z,1.82
2024-01-16T10:27:37.542Z,2.10
2024-01-16T10:30:05.449Z,2.29
2024-01-16T10:32:35.665Z,2.39
2024-01-16T10:35:05.408Z,2.42
2024-01-16T10:37:42.294Z,2.60
2024-01-16T10:40:09.185Z,2.75
2024-01-16T10:42:35.649Z,2.76
2024-01-16T10:45:02.150Z,2.67
2024-01-16T10:47:29.622Z,2.70
2024-01-16T10:49:56.255Z,3.10
2024-01-16T10:52:27.468Z,2.90
2024-01-16T10:54:58.156Z,2.65
2024-01-16T10:57:26.581Z,2.50
2024-01-16T11:00:05.799Z,2.87
2024-01-16T11:02:38.822Z,2.90
2024-01-16T11:05:07.177Z,2.81
2024-01-16T11:07:36.862Z,2.81
2024-01-16T11:10:04.218Z,2.86
2024-01-16T11:12:33.457Z,2.64
2024-01-16T11:15:02.513Z,2.71
2024-01-16T11:17:32.457Z,2.60
2024-01-16T11:20:13.516Z,2.71
2024-01-16T11:22:47.100Z,2.76
2024-01-16T11:25:15.450Z,2.76
2024-01-16T11:27:43.265Z,2.74
2024-01-16T11:30:13.392Z,2.83
2024-01-16T11:32:41.967Z,3.09
2024-01-16T11:35:09.986Z,3.02
2024-01-16T11:37:38.951Z,3.18
2024-01-16T11:40:23.743Z,3.15
2024-01-16T11:42:51.902Z,3.63
2024-01-16T11:45:31.087Z,3.47
2024-01-16T11:48:15.287Z,3.71
2024-01-16T11:50:42.968Z,3.35
2024-01-16T11:53:09.932Z,3.47
2024-01-16T11:56:07.598Z,3.22
2024-01-16T11:58:55.185Z,3.32
2024-01-16T12:01:22.471Z,3.56
2024-01-16T12:04:08.818Z,3.50
2024-01-16T12:06:37.176Z,3.72
2024-01-16T12:09:18.463Z,3.74
2024-01-16T12:11:46.642Z,4.19
2024-01-16T12:14:13.460Z,3.77
2024-01-16T12:16:39.996Z,3.72
2024-01-16T12:19:10.639Z,3.56
2024-01-16T12:21:45.231Z,3.95
2024-01-16T12:24:15.792Z,4.02
2024-01-16T12:26:44.834Z,3.86
2024-01-16T12:29:11.387Z,4.41
2024-01-16T12:31:37.900Z,4.15
2024-01-16T12:34:11.362Z,4.39
2024-01-16T12:36:39.047Z,4.12
2024-01-16T12:39:06.195Z,4.30
2024-01-16T12:41:46.459Z,4.23
2024-01-16T12:44:16.731Z,3.99
2024-01-16T12:46:54.828Z,4.24
2024-01-16T12:49:21.638Z,4.47
2024-01-16T12:51:49.048Z,3.96
2024-01-16T12:54:19.531Z,4.15
2024-01-16T12:56:46.256Z,4.10
2024-01-16T12:59:13.667Z,4.10
2024-01-16T13:01:47.847Z,4.16
2024-01-16T13:04:20.235Z,4.18
2024-01-16T13:06:49.207Z,4.24
2024-01-16T13:09:19.622Z,4.31
2024-01-16T13:11:56.969Z,4.00
2024-01-16T13:14:24.134Z,4.29
2024-01-16T13:16:51.841Z,4.36
2024-01-16T13:19:19.885Z,4.41
2024-01-16T13:21:47.147Z,4.30
2024-01-16T13:24:18.450Z,4.10
2024-01-16T13:26:45.256Z,4.21
2024-01-16T13:29:11.850Z,4.26
2024-01-16T13:31:38.397Z,4.17
2024-01-16T13:34:05.654Z,4.43
2024-01-16T13:36:47.232Z,4.64
2024-01-16T13:39:18.757Z,4.81
2024-01-16T13:41:45.285Z,4.69
2024-01-16T13:44:12.160Z,4.83
2024-01-16T13:49:08.791Z,4.83
2024-01-16T13:51:35.439Z,4.93
2024-01-16T13:54:02.116Z,4.73
2024-01-16T13:56:46.187Z,4.42
2024-01-16T13:59:15.043Z,4.70
2024-01-16T14:01:42.094Z,4.69
2024-01-16T14:04:08.643Z,4.87
2024-01-16T14:06:48.458Z,4.71
2024-01-16T14:09:21.975Z,4.79
2024-01-16T14:11:48.585Z,4.71
2024-01-16T14:14:15.125Z,4.55
2024-01-16T14:16:51.168Z,4.74
2024-01-16T14:19:21.826Z,4.74
2024-01-16T14:21:48.925Z,4.53
2024-01-16T14:24:15.764Z,4.43
2024-01-16T14:26:46.538Z,4.29
2024-01-16T14:29:13.423Z,4.20
2024-01-16T14:31:43.974Z,4.26
2024-01-16T14:34:16.429Z,4.17
2024-01-16T14:36:43.138Z,4.14
2024-01-16T14:39:14.644Z,3.95
2024-01-16T14:41:42.400Z,4.12
2024-01-16T14:44:10.854Z,4.07
2024-01-16T14:46:37.741Z,4.01
2024-01-16T14:49:04.705Z,3.77
2024-01-16T14:51:31.356Z,3.64
2024-01-16T14:53:58.070Z,3.75
2024-01-16T14:56:25.418Z,3.43
2024-01-16T14:58:52.112Z,3.43
2024-01-16T15:01:19.372Z,3.33
2024-01-16T15:03:46.142Z,3.40
2024-01-16T15:06:14.022Z,3.36
2024-01-16T15:08:40.784Z,3.39
2024-01-16T15:11:08.229Z,3.39
2024-01-16T15:13:34.784Z,3.42
2024-01-16T15:16:01.675Z,3.33
2024-01-16T15:18:28.981Z,3.55
2024-01-16T15:20:57.535Z,3.41
2024-01-16T15:23:26.191Z,3.41
2024-01-16T15:25:52.974Z,3.48
2024-01-16T15:28:19.449Z,3.43
2024-01-16T15:30:47.095Z,3.82
2024-01-16T15:33:14.930Z,3.36
2024-01-16T15:35:41.703Z,3.09
2024-01-16T15:38:08.968Z,3.04
2024-01-16T15:40:35.601Z,2.84
2024-01-16T15:43:02.139Z,2.84
2024-01-16T15:45:28.815Z,2.73
2024-01-16T15:47:55.516Z,2.61
2024-01-16T15:50:22.605Z,2.52
2024-01-16T15:52:50.445Z,2.52
2024-01-16T15:55:17.579Z,2.55
2024-01-16T15:57:44.448Z,2.52
2024-01-16T16:00:11.224Z,2.45
2024-01-16T16:02:39.650Z,2.42
2024-01-16T16:05:06.884Z,2.36
2024-01-16T16:07:33.457Z,2.39
2024-01-16T16:09:59.982Z,2.35
2024-01-16T16:12:26.506Z,2.26
2024-01-16T16:14:53.299Z,2.16
2024-01-16T16:17:19.966Z,2.06
2024-01-16T16:19:47.643Z,2.14
2024-01-16T16:22:15.064Z,2.05
2024-01-16T16:24:42.639Z,2.06
2024-01-16T16:27:27.976Z,1.89
2024-01-16T16:29:58.326Z,1.94
2024-01-16T16:32:25.537Z,1.79
2024-01-16T16:34:52.373Z,1.84
2024-01-16T16:37:19.154Z,1.82
2024-01-16T16:39:45.721Z,1.77
2024-01-16T16:42:13.092Z,1.65
2024-01-16T16:44:39.663Z,1.65
2024-01-16T16:47:06.201Z,1.67
2024-01-16T16:49:32.766Z,1.60
2024-01-16T16:51:59.336Z,1.54
2024-01-16T16:54:27.032Z,1.45
2024-01-16T16:56:55.667Z,1.33
2024-01-16T16:59:22.403Z,1.39
2024-01-16T17:01:48.980Z,1.37
2024-01-16T17:04:15.791Z,1.15
2024-01-16T17:06:42.600Z,1.19
2024-01-16T17:09:12.666Z,1.10
2024-01-16T17:11:40.417Z,1.13
2024-01-16T17:14:07.774Z,1.19
2024-01-16T17:16:34.258Z,1.81
2024-01-16T17:19:00.980Z,2.18
2024-01-16T17:21:28.080Z,1.68
2024-01-16T17:23:54.705Z,1.34
2024-01-16T17:26:21.420Z,1.26
2024-01-16T17:28:47.950Z,1.18
2024-01-16T17:31:14.405Z,1.12
2024-01-16T17:33:41.054Z,1.04
2024-01-16T17:36:11.926Z,1.09
2024-01-16T17:38:38.677Z,0.98
2024-01-16T17:41:05.872Z,0.56
2024-01-16T17:43:32.644Z,0.40
2024-01-16T17:45:59.372Z,0.14
2024-01-16T17:48:26.866Z,-0.02
2024-01-16T17:50:53.590Z,-0.16
2024-01-16T17:53:20.519Z,-0.28
2024-01-16T17:55:47.581Z,-0.43
2024-01-16T17:58:15.849Z,-0.50
2024-01-16T18:00:42.460Z,-0.68
2024-01-16T18:03:17.888Z,-0.72
2024-01-16T18:05:51.249Z,-0.69
2024-01-16T18:08:18.388Z,-0.82
2024-01-16T18:10:44.920Z,-0.92
2024-01-16T18:13:11.493Z,-1.02
2024-01-16T18:15:37.985Z,-1.03
2024-01-16T18:18:06.110Z,-1.17
2024-01-16T18:20:33.110Z,-1.19
2024-01-16T18:22:59.856Z,-1.25
2024-01-16T18:25:26.353Z,-1.25
2024-01-16T18:27:58.397Z,-1.26
2024-01-16T18:30:27.582Z,-1.35
2024-01-16T18:32:55.462Z,-1.43
2024-01-16T18:35:22.199Z,-1.32
2024-01-16T18:37:48.778Z,-1.52
2024-01-16T18:40:16.985Z,-1.39
2024-01-16T18:42:46.939Z,-1.46
2024-01-16T18:45:13.636Z,-1.20
2024-01-16T18:47:41.473Z,-1.14
2024-01-16T18:50:10.950Z,-1.33
2024-01-16T18:52:41.702Z,-1.48
2024-01-16T18:55:14.382Z,-1.51
2024-01-16T18:57:41.907Z,-1.61
2024-01-16T19:00:14.657Z,-1.82
2024-01-16T19:02:45.611Z,-1.73
2024-01-16T19:05:13.515Z,-1.72
2024-01-16T19:07:44.981Z,-1.75
2024-01-16T19:10:13.632Z,-1.88
2024-01-16T19:12:42.545Z,-1.95
2024-01-16T19:15:18.709Z,-2.00
2024-01-16T19:17:47.049Z,-2.08
2024-01-16T19:20:14.439Z,-2.20
2024-01-16T19:22:45.663Z,-2.24
2024-01-16T19:25:12.688Z,-2.22
2024-01-16T19:27:42.812Z,-2.21
2024-01-16T19:30:14.899Z,-2.13
2024-01-16T19:32:43.584Z,-2.23
2024-01-16T19:35:11.573Z,-2.36
2024-01-16T19:37:38.336Z,-2.49
2024-01-16T19:40:13.800Z,-2.59
2024-01-16T19:42:40.982Z,-2.49
2024-01-16T19:45:10.337Z,-2.40
2024-01-16T19:47:39.046Z,-2.64
2024-01-16T19:50:10.695Z,-2.81
2024-01-16T19:52:37.268Z,-2.69
2024-01-16T19:55:06.787Z,-2.76
2024-01-16T19:57:33.834Z,-2.76
2024-01-16T20:00:02.614Z,-2.99
2024-01-16T20:02:29.241Z,-2.84
2024-01-16T20:04:55.787Z,-2.96
2024-01-16T20:07:22.307Z,-3.06
2024-01-16T20:09:48.750Z,-3.02
2024-01-16T20:12:15.324Z,-3.15
2024-01-16T20:14:42.761Z,-3.01
2024-01-16T20:17:09.261Z,-3.02
2024-01-16T20:19:35.714Z,-3.13
2024-01-16T20:22:02.181Z,-3.24
2024-01-16T20:24:30.114Z,-3.21
2024-01-16T20:26:56.617Z,-3.07
2024-01-16T20:29:23.189Z,-3.14
2024-01-16T20:31:49.739Z,-3.44
2024-01-16T20:34:16.670Z,-3.32
2024-01-16T20:36:43.517Z,-3.43
2024-01-16T20:39:10.662Z,-3.51
2024-01-16T20:41:37.173Z,-3.50
2024-01-16T20:44:04.213Z,-3.55
2024-01-16T20:46:30.792Z,-3.68
2024-01-16T20:48:57.477Z,-3.74
2024-01-16T20:51:26.137Z,-3.74
2024-01-16T20:53:53.097Z,-3.64
2024-01-16T20:56:19.779Z,-3.64
2024-01-16T20:58:46.271Z,-3.75
2024-01-16T21:01:12.780Z,-3.65
2024-01-16T21:03:39.694Z,-3.77
2024-01-16T21:06:09.496Z,-3.85
2024-01-16T21:08:37.053Z,-3.87
2024-01-16T21:11:03.724Z,-3.84
2024-01-16T21:13:30.542Z,-3.84
2024-01-16T21:15:57.782Z,-3.79
2024-01-16T21:18:24.596Z,-3.81
2024-01-16T21:20:51.334Z,-3.89
2024-01-16T21:23:18.230Z,-3.84
2024-01-16T21:25:44.690Z,-3.79
2024-01-16T21:28:11.150Z,-3.83
2024-01-16T21:30:37.649Z,-4.00
2024-01-16T21:33:04.478Z,-4.03
2024-01-16T21:35:30.998Z,-3.82
2024-01-16T21:37:57.455Z,-3.43
2024-01-16T21:40:23.934Z,-3.90
2024-01-16T21:42:50.579Z,-3.95
2024-01-16T21:45:17.081Z,-4.02
2024-01-16T21:47:43.852Z,-4.13
2024-01-16T21:52:39.516Z,-4.24
2024-01-16T21:55:07.376Z,-4.30
2024-01-16T21:57:34.297Z,-4.29
2024-01-16T22:00:03.741Z,-4.38
2024-01-16T22:02:30.383Z,-4.39
2024-01-16T22:04:56.858Z,-4.40
2024-01-16T22:07:23.340Z,-4.36
2024-01-16T22:09:49.819Z,-4.49
2024-01-16T22:12:16.378Z,-4.45
2024-01-16T22:14:43.020Z,-4.49
2024-01-16T22:17:09.515Z,-4.49
2024-01-16T22:19:36.055Z,-4.55
2024-01-16T22:22:02.591Z,-4.55
2024-01-16T22:24:29.089Z,-4.50
2024-01-16T22:26:55.637Z,-4.60
2024-01-16T22:29:22.153Z,-4.53
2024-01-16T22:31:48.631Z,-4.51
2024-01-16T22:34:15.357Z,-4.45
2024-01-16T22:36:42.057Z,-4.35
2024-01-16T22:39:16.438Z,-4.38
2024-01-16T22:41:47.980Z,-4.42
2024-01-16T22:44:15.537Z,-4.49
2024-01-16T22:46:42.403Z,-4.52
2024-01-16T22:49:09.083Z,-4.47
2024-01-16T22:51:38.903Z,-4.52
2024-01-16T22:54:05.942Z,-4.47
2024-01-16T22:56:32.928Z,-4.58
2024-01-16T22:59:03.669Z,-4.44
2024-01-16T23:01:31.037Z,-4.48
2024-01-16T23:03:58.711Z,-4.46
2024-01-16T23:06:28.747Z,-4.41
2024-01-16T23:08:57.735Z,-4.47
2024-01-16T23:11:25.012Z,-4.48
2024-01-16T23:13:52.077Z,-4.48
2024-01-16T23:16:18.775Z,-4.28
2024-01-16T23:18:46.721Z,-4.28
2024-01-16T23:21:14.189Z,-4.25
2024-01-16T23:23:44.889Z,-4.14
2024-01-16T23:26:15.694Z,-4.31
2024-01-16T23:28:42.204Z,-4.35
2024-01-16T23:31:09.898Z,-4.41
2024-01-16T23:33:36.531Z,-4.31
2024-01-16T23:36:03.274Z,-4.21
2024-01-16T23:38:29.909Z,-4.42
2024-01-16T23:40:57.404Z,-4.38
2024-01-16T23:43:23.958Z,-4.38
2024-01-16T23:45:51.382Z,-4.34
2024-01-16T23:48:18.169Z,-4.32
2024-01-16T23:50:44.874Z,-4.38
2024-01-16T23:53:11.568Z,-4.27
2024-01-16T23:55:39.358Z,-4.24
2024-01-16T23:58:05.977Z,-4.27
